Back to Top

Language: 

My Weather Underground Personal Weather Station Historical Data with Graphs...

Delerius Weather Station Historical Data
Daily Summary for February 4, 2017 Units:  English    Metric   Both
« Previous Day
Next Day »
Daily Weekly Monthly Yearly Custom
  High: Low: Average:
Temperature: 47.8 °F 35.1 °F 39.9 °F
Dew Point: 38.5 °F 32.7 °F 35.5 °F
Humidity: 93 % 63 % 85 %
Wind Speed: 12.0 mph 0.0 mph 5.3 mph
Wind Gust: 20.0 mph - -
Wind:- - SSW
Pressure: 29.47 in 29.17 in -
Precipitation: 0.02 in    
Historical Graphs
 
 
Tabular Data for February 4, 2017
Time Temperature Dew Point Pressure Wind Wind Speed Wind Gust Humidity Rainfall Rate (Hourly) solar Conditions
00:05 40.5 °F 38.4 °F 29.17 in West 8.0 mph 11.0 mph 92 % 0.09 in 0 W/m2
00:15 39.7 °F 37.8 °F 29.17 in NW 10.0 mph 14.0 mph 93 % 0.06 in 0 W/m2
00:20 39.4 °F 37.5 °F 29.17 in WNW 12.0 mph 15.0 mph 93 % 0.04 in 0 W/m2
00:25 39.2 °F 37.3 °F 29.17 in West 12.0 mph 15.0 mph 93 % 0.00 in 0 W/m2
00:35 38.8 °F 36.7 °F 29.18 in West 12.0 mph 13.0 mph 92 % 0.00 in 0 W/m2
00:40 38.7 °F 36.9 °F 29.18 in WSW 11.0 mph 11.0 mph 93 % 0.00 in 0 W/m2
00:45 38.7 °F 36.9 °F 29.18 in WSW 9.0 mph 11.0 mph 93 % 0.00 in 0 W/m2
00:50 38.6 °F 36.5 °F 29.18 in West 9.0 mph 11.0 mph 92 % 0.00 in 0 W/m2
00:55 38.5 °F 36.7 °F 29.18 in West 9.0 mph 11.0 mph 93 % 0.00 in 0 W/m2
01:05 38.4 °F 36.6 °F 29.19 in WNW 10.0 mph 20.0 mph 93 % 0.00 in 0 W/m2
01:10 38.4 °F 36.6 °F 29.19 in West 9.0 mph 20.0 mph 93 % 0.00 in 0 W/m2
01:15 38.4 °F 36.6 °F 29.20 in WSW 9.0 mph 20.0 mph 93 % 0.00 in 0 W/m2
01:20 38.4 °F 36.6 °F 29.20 in WNW 10.0 mph 10.0 mph 93 % 0.00 in 0 W/m2
01:25 38.3 °F 36.5 °F 29.20 in WNW 10.0 mph 20.0 mph 93 % 0.00 in 0 W/m2
01:30 38.2 °F 36.4 °F 29.20 in West 10.0 mph 20.0 mph 93 % 0.00 in 0 W/m2
01:35 38.2 °F 36.4 °F 29.21 in West 9.0 mph 20.0 mph 93 % 0.00 in 0 W/m2
01:40 38.1 °F 36.3 °F 29.21 in SW 8.0 mph 20.0 mph 93 % 0.00 in 0 W/m2
01:45 38.2 °F 36.4 °F 29.21 in West 9.0 mph 20.0 mph 93 % 0.00 in 0 W/m2
01:50 38.2 °F 36.4 °F 29.21 in WSW 9.0 mph 20.0 mph 93 % 0.00 in 0 W/m2
01:55 38.2 °F 36.4 °F 29.21 in WNW 8.0 mph 20.0 mph 93 % 0.00 in 0 W/m2
02:00 38.3 °F 36.5 °F 29.21 in West 8.0 mph 20.0 mph 93 % 0.00 in 0 W/m2
02:10 38.5 °F 36.7 °F 29.21 in West 9.0 mph 20.0 mph 93 % 0.00 in 0 W/m2
02:15 38.7 °F 36.9 °F 29.22 in West 9.0 mph 20.0 mph 93 % 0.00 in 0 W/m2
02:20 38.7 °F 36.9 °F 29.22 in WNW 8.0 mph 20.0 mph 93 % 0.00 in 0 W/m2
02:25 38.7 °F 36.9 °F 29.23 in WNW 7.0 mph 20.0 mph 93 % 0.00 in 0 W/m2
02:30 38.7 °F 36.9 °F 29.23 in West 6.0 mph 6.0 mph 93 % 0.00 in 0 W/m2
02:40 38.7 °F 36.9 °F 29.24 in WSW 6.0 mph 6.0 mph 93 % 0.00 in 0 W/m2
02:45 38.6 °F 36.8 °F 29.24 in West 6.0 mph 9.0 mph 93 % 0.00 in 0 W/m2
02:50 38.7 °F 36.9 °F 29.23 in West 8.0 mph 8.0 mph 93 % 0.00 in 0 W/m2
02:55 38.7 °F 36.6 °F 29.23 in WSW 8.0 mph 20.0 mph 92 % 0.00 in 0 W/m2
03:00 38.6 °F 36.5 °F 29.24 in WSW 7.0 mph 7.0 mph 92 % 0.00 in 0 W/m2
03:05 38.6 °F 36.5 °F 29.24 in SW 7.0 mph 20.0 mph 92 % 0.00 in 0 W/m2
03:10 38.7 °F 36.3 °F 29.24 in SW 7.0 mph 20.0 mph 91 % 0.00 in 0 W/m2
03:15 38.6 °F 36.2 °F 29.25 in SW 8.0 mph 20.0 mph 91 % 0.00 in 0 W/m2
03:20 38.6 °F 36.2 °F 29.25 in SW 7.0 mph 7.0 mph 91 % 0.00 in 0 W/m2
03:25 38.6 °F 36.2 °F 29.25 in WSW 7.0 mph 20.0 mph 91 % 0.00 in 0 W/m2
03:30 38.5 °F 36.1 °F 29.25 in SW 7.0 mph 20.0 mph 91 % 0.00 in 0 W/m2
03:35 38.5 °F 35.8 °F 29.25 in SW 6.0 mph 20.0 mph 90 % 0.00 in 0 W/m2
03:45 38.5 °F 35.8 °F 29.25 in WSW 7.0 mph 20.0 mph 90 % 0.00 in 0 W/m2
03:50 38.5 °F 35.8 °F 29.26 in SW 8.0 mph 8.0 mph 90 % 0.00 in 0 W/m2
03:55 38.4 °F 35.7 °F 29.26 in SW 7.0 mph 20.0 mph 90 % 0.00 in 0 W/m2
04:00 38.4 °F 35.7 °F 29.26 in WSW 7.0 mph 7.0 mph 90 % 0.00 in 0 W/m2
04:05 38.3 °F 35.6 °F 29.26 in SW 6.0 mph 20.0 mph 90 % 0.00 in 0 W/m2
04:10 38.3 °F 35.6 °F 29.26 in SW 6.0 mph 20.0 mph 90 % 0.00 in 0 W/m2
04:20 38.3 °F 35.6 °F 29.26 in SSW 7.0 mph 20.0 mph 90 % 0.00 in 0 W/m2
04:25 38.2 °F 35.8 °F 29.26 in SW 6.0 mph 20.0 mph 91 % 0.00 in 0 W/m2
04:30 38.2 °F 35.8 °F 29.27 in SSW 6.0 mph 6.0 mph 91 % 0.00 in 0 W/m2
04:35 38.2 °F 35.8 °F 29.27 in SW 6.0 mph 7.0 mph 91 % 0.00 in 0 W/m2
04:40 38.3 °F 35.9 °F 29.27 in SW 6.0 mph 20.0 mph 91 % 0.00 in 0 W/m2
04:45 38.3 °F 35.9 °F 29.27 in SW 6.0 mph 20.0 mph 91 % 0.00 in 0 W/m2
04:50 38.3 °F 35.9 °F 29.27 in SW 6.0 mph 6.0 mph 91 % 0.00 in 0 W/m2
04:55 38.3 °F 35.9 °F 29.27 in SW 7.0 mph 7.0 mph 91 % 0.00 in 0 W/m2
05:00 38.2 °F 35.5 °F 29.27 in West 6.0 mph 20.0 mph 90 % 0.00 in 0 W/m2
05:05 38.2 °F 35.5 °F 29.27 in WSW 6.0 mph 20.0 mph 90 % 0.00 in 0 W/m2
05:10 38.2 °F 35.5 °F 29.27 in SSW 8.0 mph 20.0 mph 90 % 0.00 in 0 W/m2
05:20 38.2 °F 35.5 °F 29.27 in SW 9.0 mph 20.0 mph 90 % 0.00 in 0 W/m2
05:25 38.1 °F 35.4 °F 29.27 in SW 9.0 mph 20.0 mph 90 % 0.00 in 0 W/m2
05:30 38.1 °F 35.4 °F 29.27 in SW 9.0 mph 20.0 mph 90 % 0.00 in 0 W/m2
05:35 38.0 °F 35.3 °F 29.28 in SSW 9.0 mph 20.0 mph 90 % 0.00 in 0 W/m2
05:40 38.1 °F 35.4 °F 29.28 in SSW 9.0 mph 9.0 mph 90 % 0.00 in 0 W/m2
05:45 38.0 °F 35.3 °F 29.28 in SW 9.0 mph 20.0 mph 90 % 0.00 in 0 W/m2
05:55 37.8 °F 35.1 °F 29.28 in SW 8.0 mph 12.0 mph 90 % 0.00 in 0 W/m2
06:00 37.8 °F 35.1 °F 29.28 in WSW 9.0 mph 9.0 mph 90 % 0.00 in 0 W/m2
06:05 37.9 °F 35.2 °F 29.28 in SW 8.0 mph 20.0 mph 90 % 0.00 in 0 W/m2
06:10 37.9 °F 35.2 °F 29.28 in SW 8.0 mph 8.0 mph 90 % 0.00 in 0 W/m2
06:15 38.0 °F 35.3 °F 29.28 in SW 8.0 mph 20.0 mph 90 % 0.00 in 0 W/m2
06:25 37.7 °F 35.0 °F 29.29 in SSW 5.0 mph 20.0 mph 90 % 0.00 in 0 W/m2
06:30 37.6 °F 34.9 °F 29.29 in SSW 4.0 mph 4.0 mph 90 % 0.00 in 0 W/m2
06:35 37.5 °F 34.8 °F 29.29 in SSW 2.0 mph 20.0 mph 90 % 0.00 in 0 W/m2
06:40 37.3 °F 34.6 °F 29.30 in NE 1.0 mph 20.0 mph 90 % 0.00 in 0 W/m2
06:45 37.0 °F 34.3 °F 29.30 in NE 1.0 mph 20.0 mph 90 % 0.00 in 0 W/m2
06:50 36.7 °F 34.0 °F 29.30 in ENE 2.0 mph 2.0 mph 90 % 0.00 in 0 W/m2
07:00 36.3 °F 33.9 °F 29.31 in ENE 3.0 mph 20.0 mph 91 % 0.00 in 0 W/m2
07:05 36.2 °F 34.1 °F 29.31 in ENE 4.0 mph 20.0 mph 92 % 0.00 in 0 W/m2
07:10 36.3 °F 34.2 °F 29.31 in NE 5.0 mph 20.0 mph 92 % 0.00 in 0 W/m2
07:15 36.2 °F 34.1 °F 29.31 in ESE 4.0 mph 20.0 mph 92 % 0.00 in 0 W/m2
07:20 36.3 °F 34.5 °F 29.31 in ESE 3.0 mph 20.0 mph 93 % 0.00 in 0 W/m2
07:30 36.5 °F 34.4 °F 29.32 in SSE 4.0 mph 4.0 mph 92 % 0.00 in 0 W/m2
07:35 36.5 °F 34.4 °F 29.33 in SSE 2.0 mph 20.0 mph 92 % 0.00 in 0 W/m2
07:40 36.5 °F 34.4 °F 29.33 in South 2.0 mph 20.0 mph 92 % 0.00 in 0 W/m2
07:45 36.6 °F 34.5 °F 29.33 in SSW 4.0 mph 20.0 mph 92 % 0.00 in 0 W/m2
07:50 36.7 °F 34.6 °F 29.33 in SSW 4.0 mph 4.0 mph 92 % 0.00 in 5 W/m2
07:55 36.7 °F 34.6 °F 29.33 in SSW 3.0 mph 20.0 mph 92 % 0.00 in 7 W/m2
08:05 36.7 °F 34.6 °F 29.34 in SSW 2.0 mph 20.0 mph 92 % 0.00 in 11 W/m2
08:10 36.7 °F 34.6 °F 29.34 in SSW 1.0 mph 20.0 mph 92 % 0.00 in 14 W/m2
08:15 36.6 °F 34.5 °F 29.34 in South 2.0 mph 20.0 mph 92 % 0.00 in 21 W/m2
08:20 36.6 °F 34.5 °F 29.34 in SSE 3.0 mph 3.0 mph 92 % 0.00 in 26 W/m2
08:25 36.5 °F 34.4 °F 29.35 in SSE 3.0 mph 4.0 mph 92 % 0.00 in 40 W/m2
08:30 36.6 °F 34.5 °F 29.35 in SSE 3.0 mph 20.0 mph 92 % 0.00 in 49 W/m2
08:40 37.0 °F 35.2 °F 29.35 in South 6.0 mph 6.0 mph 93 % 0.00 in 70 W/m2
08:45 37.2 °F 35.4 °F 29.35 in SSE 5.0 mph 20.0 mph 93 % 0.00 in 76 W/m2
08:50 37.5 °F 35.4 °F 29.35 in South 5.0 mph 20.0 mph 92 % 0.00 in 83 W/m2
08:55 37.7 °F 35.6 °F 29.35 in South 5.0 mph 20.0 mph 92 % 0.00 in 91 W/m2
09:00 38.0 °F 35.9 °F 29.35 in SSE 6.0 mph 6.0 mph 92 % 0.00 in 97 W/m2
09:05 38.2 °F 35.8 °F 29.36 in South 6.0 mph 20.0 mph 91 % 0.00 in 98 W/m2
09:10 38.4 °F 36.0 °F 29.36 in South 6.0 mph 20.0 mph 91 % 0.00 in 128 W/m2
09:15 38.7 °F 36.3 °F 29.36 in SSW 6.0 mph 20.0 mph 91 % 0.00 in 199 W/m2
09:20 39.0 °F 36.6 °F 29.36 in South 6.0 mph 20.0 mph 91 % 0.00 in 176 W/m2
09:25 39.2 °F 36.5 °F 29.37 in South 6.0 mph 20.0 mph 90 % 0.00 in 213 W/m2
09:30 39.5 °F 36.5 °F 29.37 in SSE 6.0 mph 20.0 mph 89 % 0.00 in 178 W/m2
09:40 40.2 °F 37.2 °F 29.37 in SSW 6.0 mph 20.0 mph 89 % 0.00 in 178 W/m2
09:45 40.5 °F 37.2 °F 29.38 in SSW 6.0 mph 20.0 mph 88 % 0.00 in 113 W/m2
09:50 40.5 °F 36.9 °F 29.38 in SSW 7.0 mph 7.0 mph 87 % 0.00 in 116 W/m2
09:55 40.6 °F 36.7 °F 29.38 in South 7.0 mph 8.0 mph 86 % 0.00 in 139 W/m2
10:00 40.6 °F 36.7 °F 29.39 in South 7.0 mph 20.0 mph 86 % 0.00 in 158 W/m2
10:10 40.7 °F 36.8 °F 29.39 in South 8.0 mph 8.0 mph 86 % 0.00 in 171 W/m2
10:15 40.8 °F 36.9 °F 29.39 in SW 8.0 mph 20.0 mph 86 % 0.00 in 190 W/m2
10:20 40.9 °F 36.7 °F 29.39 in SW 8.0 mph 20.0 mph 85 % 0.00 in 227 W/m2
10:25 41.1 °F 36.9 °F 29.40 in SW 8.0 mph 20.0 mph 85 % 0.00 in 213 W/m2
10:30 41.2 °F 37.0 °F 29.40 in SSW 8.0 mph 20.0 mph 85 % 0.00 in 243 W/m2
10:35 41.4 °F 37.2 °F 29.40 in SW 9.0 mph 20.0 mph 85 % 0.00 in 248 W/m2
10:45 41.8 °F 37.3 °F 29.40 in SW 8.0 mph 20.0 mph 84 % 0.00 in 274 W/m2
10:50 42.1 °F 37.6 °F 29.40 in SSW 8.0 mph 20.0 mph 84 % 0.00 in 274 W/m2
10:55 42.3 °F 37.5 °F 29.40 in WSW 8.0 mph 20.0 mph 83 % 0.00 in 309 W/m2
11:00 42.5 °F 37.7 °F 29.40 in WSW 9.0 mph 20.0 mph 83 % 0.00 in 316 W/m2
11:05 42.8 °F 37.7 °F 29.40 in SSW 10.0 mph 20.0 mph 82 % 0.00 in 260 W/m2
11:15 43.1 °F 37.7 °F 29.40 in SW 10.0 mph 12.0 mph 81 % 0.00 in 364 W/m2
11:20 43.4 °F 37.6 °F 29.40 in SW 10.0 mph 20.0 mph 80 % 0.00 in 366 W/m2
11:25 43.7 °F 37.9 °F 29.40 in WSW 9.0 mph 20.0 mph 80 % 0.00 in 345 W/m2
11:30 43.9 °F 37.8 °F 29.40 in West 10.0 mph 20.0 mph 79 % 0.00 in 376 W/m2
11:35 44.1 °F 38.0 °F 29.40 in WSW 10.0 mph 20.0 mph 79 % 0.00 in 388 W/m2
11:40 44.6 °F 38.5 °F 29.40 in SW 8.0 mph 8.0 mph 79 % 0.00 in 385 W/m2
11:50 45.0 °F 37.9 °F 29.40 in WSW 9.0 mph 20.0 mph 76 % 0.00 in 255 W/m2
11:55 45.1 °F 38.0 °F 29.40 in SW 9.0 mph 20.0 mph 76 % 0.00 in 352 W/m2
12:00 45.1 °F 38.0 °F 29.40 in WSW 9.0 mph 20.0 mph 76 % 0.00 in 248 W/m2
12:05 45.0 °F 37.6 °F 29.40 in SW 9.0 mph 20.0 mph 75 % 0.00 in 229 W/m2
12:10 44.9 °F 37.1 °F 29.40 in WSW 9.0 mph 20.0 mph 74 % 0.00 in 274 W/m2
12:20 45.0 °F 37.6 °F 29.40 in SW 8.0 mph 20.0 mph 75 % 0.00 in 329 W/m2
12:25 45.2 °F 38.1 °F 29.41 in SSW 8.0 mph 20.0 mph 76 % 0.00 in 325 W/m2
12:30 45.4 °F 37.9 °F 29.41 in SSW 8.0 mph 8.0 mph 75 % 0.00 in 355 W/m2
12:35 45.7 °F 37.9 °F 29.41 in West 8.0 mph 9.0 mph 74 % 0.00 in 345 W/m2
12:45 46.1 °F 37.9 °F 29.41 in SW 9.0 mph 20.0 mph 73 % 0.00 in 401 W/m2
12:50 46.4 °F 37.5 °F 29.41 in WSW 9.0 mph 20.0 mph 71 % 0.00 in 401 W/m2
13:00 46.7 °F 37.1 °F 29.42 in WSW 9.0 mph 20.0 mph 69 % 0.00 in 236 W/m2
13:05 46.5 °F 36.5 °F 29.42 in SW 10.0 mph 20.0 mph 68 % 0.00 in 399 W/m2
13:10 46.6 °F 36.6 °F 29.41 in WSW 9.0 mph 20.0 mph 68 % 0.00 in 381 W/m2
13:15 46.8 °F 36.8 °F 29.41 in WSW 9.0 mph 20.0 mph 68 % 0.00 in 378 W/m2
13:20 47.0 °F 36.2 °F 29.41 in West 9.0 mph 20.0 mph 66 % 0.00 in 371 W/m2
13:30 47.3 °F 36.1 °F 29.41 in SW 9.0 mph 9.0 mph 65 % 0.00 in 352 W/m2
13:35 47.3 °F 35.7 °F 29.41 in WSW 9.0 mph 20.0 mph 64 % 0.00 in 346 W/m2
13:40 47.5 °F 36.3 °F 29.41 in SW 8.0 mph 8.0 mph 65 % 0.00 in 338 W/m2
13:45 47.5 °F 36.7 °F 29.41 in South 8.0 mph 20.0 mph 66 % 0.00 in 332 W/m2
13:50 47.4 °F 36.6 °F 29.41 in SSW 8.0 mph 20.0 mph 66 % 0.00 in 327 W/m2
14:00 47.5 °F 36.3 °F 29.41 in SW 8.0 mph 20.0 mph 65 % 0.00 in 313 W/m2
14:05 47.5 °F 35.5 °F 29.42 in SSW 8.0 mph 20.0 mph 63 % 0.00 in 302 W/m2
14:10 47.4 °F 35.4 °F 29.42 in SSW 8.0 mph 8.0 mph 63 % 0.00 in 294 W/m2
14:15 47.5 °F 36.3 °F 29.42 in South 8.0 mph 10.0 mph 65 % 0.00 in 287 W/m2
14:20 47.5 °F 36.3 °F 29.41 in SW 7.0 mph 20.0 mph 65 % 0.00 in 279 W/m2
14:25 47.5 °F 36.3 °F 29.41 in WSW 7.0 mph 20.0 mph 65 % 0.00 in 274 W/m2
14:35 47.5 °F 35.9 °F 29.41 in SW 8.0 mph 20.0 mph 64 % 0.00 in 260 W/m2
14:40 47.4 °F 35.4 °F 29.42 in WSW 8.0 mph 20.0 mph 63 % 0.00 in 250 W/m2
14:45 47.4 °F 35.4 °F 29.42 in South 8.0 mph 20.0 mph 63 % 0.00 in 241 W/m2
14:50 47.5 °F 35.5 °F 29.42 in SSW 7.0 mph 7.0 mph 63 % 0.00 in 232 W/m2
14:55 47.5 °F 35.5 °F 29.42 in SW 6.0 mph 20.0 mph 63 % 0.00 in 221 W/m2
15:05 47.8 °F 36.6 °F 29.43 in SSW 4.0 mph 20.0 mph 65 % 0.00 in 204 W/m2
15:10 47.6 °F 36.4 °F 29.43 in SSW 6.0 mph 20.0 mph 65 % 0.00 in 192 W/m2
15:15 47.4 °F 36.6 °F 29.43 in SW 6.0 mph 20.0 mph 66 % 0.00 in 181 W/m2
15:20 47.3 °F 36.9 °F 29.43 in SSW 6.0 mph 20.0 mph 67 % 0.00 in 171 W/m2
15:25 47.0 °F 36.6 °F 29.43 in South 6.0 mph 20.0 mph 67 % 0.00 in 160 W/m2
15:30 46.6 °F 36.2 °F 29.43 in SSW 6.0 mph 6.0 mph 67 % 0.00 in 151 W/m2
15:40 46.0 °F 36.4 °F 29.43 in SSW 6.0 mph 20.0 mph 69 % 0.00 in 35 W/m2
15:45 45.8 °F 36.6 °F 29.44 in SSW 7.0 mph 20.0 mph 70 % 0.00 in 28 W/m2
15:50 45.6 °F 36.7 °F 29.44 in South 6.0 mph 6.0 mph 71 % 0.00 in 26 W/m2
15:55 45.5 °F 36.6 °F 29.44 in SSW 6.0 mph 7.0 mph 71 % 0.00 in 25 W/m2
16:00 45.3 °F 36.8 °F 29.43 in SSW 6.0 mph 20.0 mph 72 % 0.00 in 23 W/m2
16:10 45.0 °F 36.5 °F 29.43 in SSW 6.0 mph 6.0 mph 72 % 0.00 in 19 W/m2
16:15 45.0 °F 36.5 °F 29.44 in SSW 4.0 mph 7.0 mph 72 % 0.00 in 18 W/m2
16:20 44.8 °F 36.3 °F 29.44 in SSW 3.0 mph 20.0 mph 72 % 0.00 in 12 W/m2
16:25 44.6 °F 36.1 °F 29.44 in SSW 4.0 mph 20.0 mph 72 % 0.00 in 11 W/m2
16:30 44.4 °F 36.3 °F 29.44 in SSE 2.0 mph 20.0 mph 73 % 0.00 in 9 W/m2
16:35 44.1 °F 36.0 °F 29.44 in South 3.0 mph 20.0 mph 73 % 0.00 in 9 W/m2
16:45 43.6 °F 35.9 °F 29.44 in South 3.0 mph 20.0 mph 74 % 0.00 in 5 W/m2
16:50 43.3 °F 35.6 °F 29.44 in South 3.0 mph 20.0 mph 74 % 0.00 in 5 W/m2
16:55 43.1 °F 35.4 °F 29.44 in South 4.0 mph 20.0 mph 74 % 0.00 in 0 W/m2
17:00 43.0 °F 35.3 °F 29.44 in SSW 5.0 mph 5.0 mph 74 % 0.00 in 0 W/m2
17:05 42.8 °F 35.4 °F 29.44 in SSW 6.0 mph 8.0 mph 75 % 0.00 in 0 W/m2
17:15 42.6 °F 35.2 °F 29.45 in SSW 4.0 mph 20.0 mph 75 % 0.00 in 0 W/m2
17:25 42.1 °F 35.1 °F 29.45 in SSE 1.0 mph 5.0 mph 76 % 0.00 in 0 W/m2
17:30 41.8 °F 35.1 °F 29.45 in SSE 3.0 mph 3.0 mph 77 % 0.00 in 0 W/m2
17:35 41.6 °F 34.9 °F 29.45 in SSE 3.0 mph 20.0 mph 77 % 0.00 in 0 W/m2
17:40 41.4 °F 35.1 °F 29.45 in SSE 3.0 mph 3.0 mph 78 % 0.00 in 0 W/m2
17:45 41.1 °F 34.8 °F 29.45 in SSE 3.0 mph 4.0 mph 78 % 0.00 in 0 W/m2
17:50 40.8 °F 34.8 °F 29.45 in SSE 2.0 mph 20.0 mph 79 % 0.00 in 0 W/m2
18:00 40.3 °F 34.6 °F 29.45 in SSE 2.0 mph 2.0 mph 80 % 0.00 in 0 W/m2
18:05 40.0 °F 34.6 °F 29.46 in SSE 2.0 mph 20.0 mph 81 % 0.00 in 0 W/m2
18:10 39.8 °F 34.4 °F 29.45 in SSE 2.0 mph 2.0 mph 81 % 0.00 in 0 W/m2
18:15 39.7 °F 34.7 °F 29.46 in SSE 1.0 mph 4.0 mph 82 % 0.00 in 0 W/m2
18:20 39.7 °F 34.7 °F 29.45 in SSE 2.0 mph 2.0 mph 82 % 0.00 in 0 W/m2
18:30 39.3 °F 34.3 °F 29.45 in Calm   20.0 mph 82 % 0.00 in 0 W/m2
18:35 39.0 °F 34.3 °F 29.45 in Calm   20.0 mph 83 % 0.00 in 0 W/m2
18:40 38.6 °F 33.9 °F 29.45 in Calm   20.0 mph 83 % 0.00 in 0 W/m2
18:45 38.3 °F 33.6 °F 29.45 in Calm   20.0 mph 83 % 0.00 in 0 W/m2
18:50 38.0 °F 33.6 °F 29.45 in Calm   20.0 mph 84 % 0.00 in 0 W/m2
18:55 37.6 °F 33.5 °F 29.45 in Calm   20.0 mph 85 % 0.00 in 0 W/m2
19:05 37.1 °F 33.0 °F 29.46 in Calm   20.0 mph 85 % 0.00 in 0 W/m2
19:10 37.0 °F 33.5 °F 29.46 in Calm   20.0 mph 87 % 0.00 in 0 W/m2
19:15 37.0 °F 33.5 °F 29.46 in Calm   20.0 mph 87 % 0.00 in 0 W/m2
19:20 37.0 °F 33.5 °F 29.46 in Calm   20.0 mph 87 % 0.00 in 0 W/m2
19:25 37.0 °F 33.5 °F 29.45 in Calm   20.0 mph 87 % 0.00 in 0 W/m2
19:35 36.7 °F 33.2 °F 29.46 in Calm   20.0 mph 87 % 0.00 in 0 W/m2
19:40 36.5 °F 33.0 °F 29.46 in Calm   20.0 mph 87 % 0.00 in 0 W/m2
19:45 36.2 °F 33.0 °F 29.45 in Calm   20.0 mph 88 % 0.00 in 0 W/m2
19:50 36.1 °F 33.2 °F 29.46 in SSE 1.0 mph 20.0 mph 89 % 0.00 in 0 W/m2
19:55 36.1 °F 33.2 °F 29.46 in SSE 1.0 mph 20.0 mph 89 % 0.00 in 0 W/m2
20:00 36.2 °F 33.3 °F 29.46 in ESE 1.0 mph 20.0 mph 89 % 0.00 in 0 W/m2
20:10 36.5 °F 33.8 °F 29.46 in ESE 2.0 mph 2.0 mph 90 % 0.00 in 0 W/m2
20:15 36.4 °F 33.5 °F 29.46 in ESE 2.0 mph 20.0 mph 89 % 0.00 in 0 W/m2
20:20 36.3 °F 33.4 °F 29.46 in ESE 2.0 mph 20.0 mph 89 % 0.00 in 0 W/m2
20:25 36.3 °F 33.4 °F 29.46 in ESE 2.0 mph 20.0 mph 89 % 0.00 in 0 W/m2
20:30 36.2 °F 33.3 °F 29.46 in ESE 2.0 mph 2.0 mph 89 % 0.00 in 0 W/m2
20:40 36.1 °F 33.5 °F 29.46 in ESE 1.0 mph 1.0 mph 90 % 0.00 in 0 W/m2
20:45 36.0 °F 33.4 °F 29.46 in ESE 1.0 mph 5.0 mph 90 % 0.00 in 0 W/m2
20:50 36.1 °F 33.5 °F 29.46 in ESE 1.0 mph 20.0 mph 90 % 0.00 in 0 W/m2
21:00 36.3 °F 33.6 °F 29.46 in ESE 1.0 mph 1.0 mph 90 % 0.00 in 0 W/m2
21:05 36.3 °F 33.4 °F 29.46 in ESE 1.0 mph 20.0 mph 89 % 0.00 in 0 W/m2
21:10 36.2 °F 33.3 °F 29.46 in ESE 1.0 mph 20.0 mph 89 % 0.00 in 0 W/m2
21:15 36.1 °F 33.2 °F 29.46 in ESE 1.0 mph 20.0 mph 89 % 0.00 in 0 W/m2
21:25 36.1 °F 33.5 °F 29.46 in ESE 1.0 mph 20.0 mph 90 % 0.00 in 0 W/m2
21:30 36.2 °F 33.5 °F 29.46 in SE 2.0 mph 20.0 mph 90 % 0.00 in 0 W/m2
21:35 36.2 °F 33.5 °F 29.46 in SE 3.0 mph 20.0 mph 90 % 0.00 in 0 W/m2
21:40 36.3 °F 33.6 °F 29.46 in SSE 3.0 mph 3.0 mph 90 % 0.00 in 0 W/m2
21:50 36.6 °F 33.9 °F 29.46 in South 3.0 mph 3.0 mph 90 % 0.00 in 0 W/m2
21:55 36.6 °F 33.7 °F 29.46 in SSE 2.0 mph 20.0 mph 89 % 0.00 in 0 W/m2
22:00 36.5 °F 33.6 °F 29.46 in South 1.0 mph 1.0 mph 89 % 0.00 in 0 W/m2
22:05 36.4 °F 33.5 °F 29.46 in South 1.0 mph 20.0 mph 89 % 0.00 in 0 W/m2
22:10 36.2 °F 33.3 °F 29.46 in Calm   20.0 mph 89 % 0.00 in 0 W/m2
22:20 36.1 °F 33.5 °F 29.46 in SE 1.0 mph 20.0 mph 90 % 0.00 in 0 W/m2
22:25 36.0 °F 33.1 °F 29.46 in SE 1.0 mph 20.0 mph 89 % 0.00 in 0 W/m2
22:30 35.9 °F 33.3 °F 29.46 in SSE 1.0 mph 20.0 mph 90 % 0.00 in 0 W/m2
22:35 36.0 °F 33.4 °F 29.46 in SSE 2.0 mph 20.0 mph 90 % 0.00 in 0 W/m2
22:40 36.0 °F 33.4 °F 29.46 in SSE 3.0 mph 3.0 mph 90 % 0.00 in 0 W/m2
22:45 35.9 °F 33.3 °F 29.47 in SSE 2.0 mph 20.0 mph 90 % 0.00 in 0 W/m2
22:55 35.7 °F 33.1 °F 29.46 in SE 1.0 mph 20.0 mph 90 % 0.00 in 0 W/m2
23:00 35.6 °F 33.0 °F 29.46 in SE 1.0 mph 20.0 mph 90 % 0.00 in 0 W/m2
23:05 35.5 °F 32.9 °F 29.46 in SE 1.0 mph 20.0 mph 90 % 0.00 in 0 W/m2
23:10 35.4 °F 32.8 °F 29.46 in Calm   20.0 mph 90 % 0.00 in 0 W/m2
23:15 35.4 °F 32.8 °F 29.46 in Calm   20.0 mph 90 % 0.00 in 0 W/m2
23:25 35.3 °F 32.9 °F 29.46 in Calm   20.0 mph 91 % 0.00 in 0 W/m2
23:30 35.3 °F 32.9 °F 29.47 in Calm   20.0 mph 91 % 0.00 in 0 W/m2
23:35 35.2 °F 32.8 °F 29.46 in Calm   20.0 mph 91 % 0.00 in 0 W/m2
23:40 35.2 °F 32.8 °F 29.46 in Calm   20.0 mph 91 % 0.00 in 0 W/m2
23:45 35.1 °F 32.7 °F 29.46 in Calm   20.0 mph 91 % 0.00 in 0 W/m2
23:50 35.1 °F 32.7 °F 29.46 in Calm   20.0 mph 91 % 0.00 in 0 W/m2
Delerius-Weather
Compliments of Weather Underground - 2 mb

Data updates at regular intervals.